sensor_id;sensor_type;location;lat;lon;timestamp;temperature;humidity
12839;DHT22;6486;51.034;5.262;2022-08-19T00:01:42;21.40;69.10
12839;DHT22;6486;51.034;5.262;2022-08-19T00:04:10;21.40;69.10
12839;DHT22;6486;51.034;5.262;2022-08-19T00:06:37;21.40;69.00
12839;DHT22;6486;51.034;5.262;2022-08-19T00:09:06;21.30;69.20
12839;DHT22;6486;51.034;5.262;2022-08-19T00:11:32;21.20;69.20
12839;DHT22;6486;51.034;5.262;2022-08-19T00:14:00;21.20;69.40
12839;DHT22;6486;51.034;5.262;2022-08-19T00:16:26;21.10;69.60
12839;DHT22;6486;51.034;5.262;2022-08-19T00:18:51;21.10;69.80
12839;DHT22;6486;51.034;5.262;2022-08-19T00:21:17;21.10;70.00
12839;DHT22;6486;51.034;5.262;2022-08-19T00:23:43;21.10;70.00
12839;DHT22;6486;51.034;5.262;2022-08-19T00:26:10;21.10;69.80
12839;DHT22;6486;51.034;5.262;2022-08-19T00:28:37;21.00;69.90
12839;DHT22;6486;51.034;5.262;2022-08-19T00:31:04;21.00;69.80
12839;DHT22;6486;51.034;5.262;2022-08-19T00:33:31;21.00;69.80
12839;DHT22;6486;51.034;5.262;2022-08-19T00:36:02;21.00;70.50
12839;DHT22;6486;51.034;5.262;2022-08-19T00:38:30;20.90;70.00
12839;DHT22;6486;51.034;5.262;2022-08-19T00:40:56;20.90;70.30
12839;DHT22;6486;51.034;5.262;2022-08-19T00:43:24;20.80;70.40
12839;DHT22;6486;51.034;5.262;2022-08-19T00:45:51;20.80;70.60
12839;DHT22;6486;51.034;5.262;2022-08-19T00:48:18;20.70;70.60
12839;DHT22;6486;51.034;5.262;2022-08-19T00:50:45;20.70;70.80
12839;DHT22;6486;51.034;5.262;2022-08-19T00:53:14;20.70;70.80
12839;DHT22;6486;51.034;5.262;2022-08-19T00:55:42;20.60;71.00
12839;DHT22;6486;51.034;5.262;2022-08-19T00:58:13;20.60;71.30
12839;DHT22;6486;51.034;5.262;2022-08-19T01:00:39;20.50;71.50
12839;DHT22;6486;51.034;5.262;2022-08-19T01:03:07;20.50;71.70
12839;DHT22;6486;51.034;5.262;2022-08-19T01:05:34;20.50;71.50
12839;DHT22;6486;51.034;5.262;2022-08-19T01:08:02;20.50;71.40
12839;DHT22;6486;51.034;5.262;2022-08-19T01:10:33;20.50;71.20
12839;DHT22;6486;51.034;5.262;2022-08-19T01:13:01;20.50;71.00
12839;DHT22;6486;51.034;5.262;2022-08-19T01:15:30;20.50;70.90
12839;DHT22;6486;51.034;5.262;2022-08-19T01:17:57;20.60;71.00
12839;DHT22;6486;51.034;5.262;2022-08-19T01:20:25;20.50;71.00
12839;DHT22;6486;51.034;5.262;2022-08-19T01:22:53;20.50;71.00
12839;DHT22;6486;51.034;5.262;2022-08-19T01:25:29;20.50;71.00
12839;DHT22;6486;51.034;5.262;2022-08-19T01:27:55;20.50;71.10
12839;DHT22;6486;51.034;5.262;2022-08-19T01:30:27;20.50;71.30
12839;DHT22;6486;51.034;5.262;2022-08-19T01:32:54;20.50;71.30
12839;DHT22;6486;51.034;5.262;2022-08-19T01:35:21;20.50;71.30
12839;DHT22;6486;51.034;5.262;2022-08-19T01:37:54;20.50;71.40
12839;DHT22;6486;51.034;5.262;2022-08-19T01:40:23;20.50;71.40
12839;DHT22;6486;51.034;5.262;2022-08-19T01:42:50;20.50;71.60
12839;DHT22;6486;51.034;5.262;2022-08-19T01:45:17;20.50;71.50
12839;DHT22;6486;51.034;5.262;2022-08-19T01:47:43;20.50;71.50
12839;DHT22;6486;51.034;5.262;2022-08-19T01:50:10;20.50;71.60
12839;DHT22;6486;51.034;5.262;2022-08-19T01:52:37;20.50;71.60
12839;DHT22;6486;51.034;5.262;2022-08-19T01:55:04;20.50;71.60
12839;DHT22;6486;51.034;5.262;2022-08-19T01:57:30;20.50;71.60
12839;DHT22;6486;51.034;5.262;2022-08-19T01:59:56;20.50;71.50
12839;DHT22;6486;51.034;5.262;2022-08-19T02:02:22;20.50;71.50
12839;DHT22;6486;51.034;5.262;2022-08-19T02:04:48;20.50;71.50
12839;DHT22;6486;51.034;5.262;2022-08-19T02:07:14;20.50;71.50
12839;DHT22;6486;51.034;5.262;2022-08-19T02:09:40;20.50;71.50
12839;DHT22;6486;51.034;5.262;2022-08-19T02:12:07;20.50;71.50
12839;DHT22;6486;51.034;5.262;2022-08-19T02:14:35;20.40;71.50
12839;DHT22;6486;51.034;5.262;2022-08-19T02:17:01;20.40;71.60
12839;DHT22;6486;51.034;5.262;2022-08-19T02:19:26;20.40;71.70
12839;DHT22;6486;51.034;5.262;2022-08-19T02:21:53;20.40;71.80
12839;DHT22;6486;51.034;5.262;2022-08-19T02:24:18;20.30;71.70
12839;DHT22;6486;51.034;5.262;2022-08-19T02:26:44;20.30;71.70
12839;DHT22;6486;51.034;5.262;2022-08-19T02:29:10;20.30;71.80
12839;DHT22;6486;51.034;5.262;2022-08-19T02:31:36;20.30;71.70
12839;DHT22;6486;51.034;5.262;2022-08-19T02:34:01;20.30;71.80
12839;DHT22;6486;51.034;5.262;2022-08-19T02:36:27;20.30;71.90
12839;DHT22;6486;51.034;5.262;2022-08-19T02:38:53;20.30;71.90
12839;DHT22;6486;51.034;5.262;2022-08-19T02:41:22;20.30;71.90
12839;DHT22;6486;51.034;5.262;2022-08-19T02:43:48;20.30;71.80
12839;DHT22;6486;51.034;5.262;2022-08-19T02:46:27;20.30;71.90
12839;DHT22;6486;51.034;5.262;2022-08-19T02:48:56;20.20;71.90
12839;DHT22;6486;51.034;5.262;2022-08-19T02:51:26;20.20;71.80
12839;DHT22;6486;51.034;5.262;2022-08-19T02:53:52;20.30;71.90
12839;DHT22;6486;51.034;5.262;2022-08-19T02:56:19;20.30;72.10
12839;DHT22;6486;51.034;5.262;2022-08-19T02:58:45;20.20;72.10
12839;DHT22;6486;51.034;5.262;2022-08-19T03:01:18;20.20;72.10
12839;DHT22;6486;51.034;5.262;2022-08-19T03:03:44;20.20;72.10
12839;DHT22;6486;51.034;5.262;2022-08-19T03:06:13;20.20;72.20
12839;DHT22;6486;51.034;5.262;2022-08-19T03:08:41;20.20;72.10
12839;DHT22;6486;51.034;5.262;2022-08-19T03:11:14;20.20;72.10
12839;DHT22;6486;51.034;5.262;2022-08-19T03:13:40;20.20;72.10
12839;DHT22;6486;51.034;5.262;2022-08-19T03:16:05;20.20;72.10
12839;DHT22;6486;51.034;5.262;2022-08-19T03:18:31;20.20;72.20
12839;DHT22;6486;51.034;5.262;2022-08-19T03:20:57;20.20;72.30
12839;DHT22;6486;51.034;5.262;2022-08-19T03:23:23;20.20;72.30
12839;DHT22;6486;51.034;5.262;2022-08-19T03:25:50;20.10;72.20
12839;DHT22;6486;51.034;5.262;2022-08-19T03:28:16;20.10;72.20
12839;DHT22;6486;51.034;5.262;2022-08-19T03:30:58;20.10;72.20
12839;DHT22;6486;51.034;5.262;2022-08-19T03:33:25;20.10;72.40
12839;DHT22;6486;51.034;5.262;2022-08-19T03:36:23;20.00;72.30
12839;DHT22;6486;51.034;5.262;2022-08-19T03:38:52;20.00;72.50
12839;DHT22;6486;51.034;5.262;2022-08-19T03:41:25;20.00;72.40
12839;DHT22;6486;51.034;5.262;2022-08-19T03:43:52;20.00;72.50
12839;DHT22;6486;51.034;5.262;2022-08-19T03:46:24;19.90;72.40
12839;DHT22;6486;51.034;5.262;2022-08-19T03:48:52;19.90;72.40
12839;DHT22;6486;51.034;5.262;2022-08-19T03:51:25;20.00;72.60
12839;DHT22;6486;51.034;5.262;2022-08-19T03:53:52;19.90;72.50
12839;DHT22;6486;51.034;5.262;2022-08-19T03:56:18;19.90;72.60
12839;DHT22;6486;51.034;5.262;2022-08-19T03:58:44;19.90;72.60
12839;DHT22;6486;51.034;5.262;2022-08-19T04:01:16;19.90;72.70
12839;DHT22;6486;51.034;5.262;2022-08-19T04:03:44;19.80;72.60
12839;DHT22;6486;51.034;5.262;2022-08-19T04:08:45;19.80;72.70
12839;DHT22;6486;51.034;5.262;2022-08-19T04:11:13;19.80;72.60
12839;DHT22;6486;51.034;5.262;2022-08-19T04:13:40;19.80;72.70
12839;DHT22;6486;51.034;5.262;2022-08-19T04:16:06;19.80;72.60
12839;DHT22;6486;51.034;5.262;2022-08-19T04:18:36;19.70;72.50
12839;DHT22;6486;51.034;5.262;2022-08-19T04:21:02;19.70;72.60
12839;DHT22;6486;51.034;5.262;2022-08-19T04:23:28;19.70;72.60
12839;DHT22;6486;51.034;5.262;2022-08-19T04:25:54;19.70;72.60
12839;DHT22;6486;51.034;5.262;2022-08-19T04:28:20;19.70;72.60
12839;DHT22;6486;51.034;5.262;2022-08-19T04:30:49;19.70;72.70
12839;DHT22;6486;51.034;5.262;2022-08-19T04:33:18;19.70;72.80
12839;DHT22;6486;51.034;5.262;2022-08-19T04:35:48;19.60;72.80
12839;DHT22;6486;51.034;5.262;2022-08-19T04:38:18;19.70;73.00
12839;DHT22;6486;51.034;5.262;2022-08-19T04:40:47;19.60;72.80
12839;DHT22;6486;51.034;5.262;2022-08-19T04:43:33;19.60;73.00
12839;DHT22;6486;51.034;5.262;2022-08-19T04:46:05;19.50;73.00
12839;DHT22;6486;51.034;5.262;2022-08-19T04:48:31;19.50;73.10
12839;DHT22;6486;51.034;5.262;2022-08-19T04:50:58;19.50;73.00
12839;DHT22;6486;51.034;5.262;2022-08-19T04:53:32;19.50;73.00
12839;DHT22;6486;51.034;5.262;2022-08-19T04:55:59;19.50;72.80
12839;DHT22;6486;51.034;5.262;2022-08-19T04:58:27;19.50;72.80
12839;DHT22;6486;51.034;5.262;2022-08-19T05:00:53;19.50;72.80
12839;DHT22;6486;51.034;5.262;2022-08-19T05:03:19;19.50;73.70
12839;DHT22;6486;51.034;5.262;2022-08-19T05:05:47;19.50;73.20
12839;DHT22;6486;51.034;5.262;2022-08-19T05:08:18;19.40;73.10
12839;DHT22;6486;51.034;5.262;2022-08-19T05:10:46;19.40;73.20
12839;DHT22;6486;51.034;5.262;2022-08-19T05:13:12;19.40;73.20
12839;DHT22;6486;51.034;5.262;2022-08-19T05:15:38;19.40;73.10
12839;DHT22;6486;51.034;5.262;2022-08-19T05:18:04;19.40;73.20
12839;DHT22;6486;51.034;5.262;2022-08-19T05:20:48;19.30;73.50
12839;DHT22;6486;51.034;5.262;2022-08-19T05:23:32;19.30;73.70
12839;DHT22;6486;51.034;5.262;2022-08-19T05:25:58;19.20;73.90
12839;DHT22;6486;51.034;5.262;2022-08-19T05:28:24;19.20;74.20
12839;DHT22;6486;51.034;5.262;2022-08-19T05:30:50;19.20;74.40
12839;DHT22;6486;51.034;5.262;2022-08-19T05:33:18;19.20;74.40
12839;DHT22;6486;51.034;5.262;2022-08-19T05:35:44;19.30;74.40
12839;DHT22;6486;51.034;5.262;2022-08-19T05:38:10;19.30;74.30
12839;DHT22;6486;51.034;5.262;2022-08-19T05:40:37;19.30;74.30
12839;DHT22;6486;51.034;5.262;2022-08-19T05:43:05;19.40;74.30
12839;DHT22;6486;51.034;5.262;2022-08-19T05:45:31;19.40;74.50
12839;DHT22;6486;51.034;5.262;2022-08-19T05:47:57;19.40;74.50
12839;DHT22;6486;51.034;5.262;2022-08-19T05:50:25;19.50;74.40
12839;DHT22;6486;51.034;5.262;2022-08-19T05:52:52;19.50;74.30
12839;DHT22;6486;51.034;5.262;2022-08-19T05:55:18;19.60;74.20
12839;DHT22;6486;51.034;5.262;2022-08-19T05:57:46;19.60;74.20
12839;DHT22;6486;51.034;5.262;2022-08-19T06:00:12;19.60;74.20
12839;DHT22;6486;51.034;5.262;2022-08-19T06:02:39;19.70;74.30
12839;DHT22;6486;51.034;5.262;2022-08-19T06:05:07;19.70;74.90
12839;DHT22;6486;51.034;5.262;2022-08-19T06:07:36;19.70;74.40
12839;DHT22;6486;51.034;5.262;2022-08-19T06:10:06;19.70;74.40
12839;DHT22;6486;51.034;5.262;2022-08-19T06:12:33;19.80;74.50
12839;DHT22;6486;51.034;5.262;2022-08-19T06:15:03;19.80;75.00
12839;DHT22;6486;51.034;5.262;2022-08-19T06:17:30;19.90;74.30
12839;DHT22;6486;51.034;5.262;2022-08-19T06:19:56;19.90;74.20
12839;DHT22;6486;51.034;5.262;2022-08-19T06:22:21;20.00;74.00
12839;DHT22;6486;51.034;5.262;2022-08-19T06:24:47;20.10;74.00
12839;DHT22;6486;51.034;5.262;2022-08-19T06:27:13;20.10;73.90
12839;DHT22;6486;51.034;5.262;2022-08-19T06:29:39;20.20;73.80
12839;DHT22;6486;51.034;5.262;2022-08-19T06:32:04;20.30;73.80
12839;DHT22;6486;51.034;5.262;2022-08-19T06:34:32;20.30;73.70
12839;DHT22;6486;51.034;5.262;2022-08-19T06:37:00;20.40;73.60
12839;DHT22;6486;51.034;5.262;2022-08-19T06:39:30;20.40;73.50
12839;DHT22;6486;51.034;5.262;2022-08-19T06:41:59;20.40;73.50
12839;DHT22;6486;51.034;5.262;2022-08-19T06:44:28;20.50;73.50
12839;DHT22;6486;51.034;5.262;2022-08-19T06:46:55;20.50;73.30
12839;DHT22;6486;51.034;5.262;2022-08-19T06:49:21;20.60;73.30
12839;DHT22;6486;51.034;5.262;2022-08-19T06:51:48;20.60;73.20
12839;DHT22;6486;51.034;5.262;2022-08-19T06:54:15;20.60;73.20
12839;DHT22;6486;51.034;5.262;2022-08-19T06:56:41;20.70;73.10
12839;DHT22;6486;51.034;5.262;2022-08-19T06:59:12;20.70;73.00
12839;DHT22;6486;51.034;5.262;2022-08-19T07:01:50;20.70;72.90
12839;DHT22;6486;51.034;5.262;2022-08-19T07:04:20;20.80;72.90
12839;DHT22;6486;51.034;5.262;2022-08-19T07:06:46;20.90;73.00
12839;DHT22;6486;51.034;5.262;2022-08-19T07:09:15;20.90;72.90
12839;DHT22;6486;51.034;5.262;2022-08-19T07:11:46;20.90;72.80
12839;DHT22;6486;51.034;5.262;2022-08-19T07:14:13;20.90;72.80
12839;DHT22;6486;51.034;5.262;2022-08-19T07:16:39;20.90;72.80
12839;DHT22;6486;51.034;5.262;2022-08-19T07:19:05;20.90;72.70
12839;DHT22;6486;51.034;5.262;2022-08-19T07:21:31;21.00;72.70
12839;DHT22;6486;51.034;5.262;2022-08-19T07:23:58;21.10;72.70
12839;DHT22;6486;51.034;5.262;2022-08-19T07:26:27;21.20;72.70
12839;DHT22;6486;51.034;5.262;2022-08-19T07:28:54;21.20;72.60
12839;DHT22;6486;51.034;5.262;2022-08-19T07:31:22;21.40;72.60
12839;DHT22;6486;51.034;5.262;2022-08-19T07:33:49;21.50;72.50
12839;DHT22;6486;51.034;5.262;2022-08-19T07:36:18;21.50;72.20
12839;DHT22;6486;51.034;5.262;2022-08-19T07:38:46;21.60;72.10
12839;DHT22;6486;51.034;5.262;2022-08-19T07:41:16;21.70;71.90
12839;DHT22;6486;51.034;5.262;2022-08-19T07:43:42;21.70;71.60
12839;DHT22;6486;51.034;5.262;2022-08-19T07:46:10;21.70;71.60
12839;DHT22;6486;51.034;5.262;2022-08-19T07:48:36;21.70;71.70
12839;DHT22;6486;51.034;5.262;2022-08-19T07:51:05;21.80;71.70
12839;DHT22;6486;51.034;5.262;2022-08-19T07:53:32;21.80;71.60
12839;DHT22;6486;51.034;5.262;2022-08-19T07:55:59;21.90;71.50
12839;DHT22;6486;51.034;5.262;2022-08-19T07:58:27;22.00;71.50
12839;DHT22;6486;51.034;5.262;2022-08-19T08:00:53;22.00;71.30
12839;DHT22;6486;51.034;5.262;2022-08-19T08:03:21;22.00;71.30
12839;DHT22;6486;51.034;5.262;2022-08-19T08:06:11;22.10;71.30
12839;DHT22;6486;51.034;5.262;2022-08-19T08:08:55;22.10;71.20
12839;DHT22;6486;51.034;5.262;2022-08-19T08:11:47;22.10;71.00
12839;DHT22;6486;51.034;5.262;2022-08-19T08:14:17;22.20;71.10
12839;DHT22;6486;51.034;5.262;2022-08-19T08:16:43;22.20;70.90
12839;DHT22;6486;51.034;5.262;2022-08-19T08:19:11;22.20;70.90
12839;DHT22;6486;51.034;5.262;2022-08-19T08:21:37;22.30;70.80
12839;DHT22;6486;51.034;5.262;2022-08-19T08:24:02;22.30;70.90
12839;DHT22;6486;51.034;5.262;2022-08-19T08:26:28;22.40;70.90
12839;DHT22;6486;51.034;5.262;2022-08-19T08:28:54;22.60;70.70
12839;DHT22;6486;51.034;5.262;2022-08-19T08:31:19;22.80;70.10
12839;DHT22;6486;51.034;5.262;2022-08-19T08:33:46;22.90;69.80
12839;DHT22;6486;51.034;5.262;2022-08-19T08:36:12;22.90;69.50
12839;DHT22;6486;51.034;5.262;2022-08-19T08:38:42;23.20;69.10
12839;DHT22;6486;51.034;5.262;2022-08-19T08:41:37;23.20;68.90
12839;DHT22;6486;51.034;5.262;2022-08-19T08:44:00;23.30;69.20
12839;DHT22;6486;51.034;5.262;2022-08-19T08:46:34;23.50;68.50
12839;DHT22;6486;51.034;5.262;2022-08-19T08:52:06;23.90;68.00
12839;DHT22;6486;51.034;5.262;2022-08-19T08:54:37;24.00;67.80
12839;DHT22;6486;51.034;5.262;2022-08-19T08:57:14;24.00;67.50
12839;DHT22;6486;51.034;5.262;2022-08-19T08:59:42;24.30;67.10
12839;DHT22;6486;51.034;5.262;2022-08-19T09:02:09;24.50;66.80
12839;DHT22;6486;51.034;5.262;2022-08-19T09:04:38;24.60;66.50
12839;DHT22;6486;51.034;5.262;2022-08-19T09:09:50;24.60;65.60
12839;DHT22;6486;51.034;5.262;2022-08-19T09:12:30;24.90;65.40
12839;DHT22;6486;51.034;5.262;2022-08-19T09:15:06;24.90;65.10
12839;DHT22;6486;51.034;5.262;2022-08-19T09:17:32;25.20;64.70
12839;DHT22;6486;51.034;5.262;2022-08-19T09:20:06;25.50;64.10
12839;DHT22;6486;51.034;5.262;2022-08-19T09:22:35;25.70;63.40
12839;DHT22;6486;51.034;5.262;2022-08-19T09:25:01;25.90;63.10
12839;DHT22;6486;51.034;5.262;2022-08-19T09:27:27;26.10;62.30
12839;DHT22;6486;51.034;5.262;2022-08-19T09:29:54;26.20;62.00
12839;DHT22;6486;51.034;5.262;2022-08-19T09:32:21;26.40;61.00
12839;DHT22;6486;51.034;5.262;2022-08-19T09:34:47;26.60;60.90
12839;DHT22;6486;51.034;5.262;2022-08-19T09:37:13;26.80;60.40
12839;DHT22;6486;51.034;5.262;2022-08-19T09:39:40;26.80;59.70
12839;DHT22;6486;51.034;5.262;2022-08-19T09:42:09;26.70;59.80
12839;DHT22;6486;51.034;5.262;2022-08-19T09:44:41;26.60;60.00
12839;DHT22;6486;51.034;5.262;2022-08-19T09:47:08;26.70;59.60
12839;DHT22;6486;51.034;5.262;2022-08-19T09:49:35;26.90;59.50
12839;DHT22;6486;51.034;5.262;2022-08-19T09:52:01;26.90;59.40
12839;DHT22;6486;51.034;5.262;2022-08-19T09:54:27;26.70;59.20
12839;DHT22;6486;51.034;5.262;2022-08-19T09:56:53;26.40;59.40
12839;DHT22;6486;51.034;5.262;2022-08-19T09:59:19;26.40;59.50
12839;DHT22;6486;51.034;5.262;2022-08-19T10:01:45;26.50;59.50
12839;DHT22;6486;51.034;5.262;2022-08-19T10:04:11;26.40;59.40
12839;DHT22;6486;51.034;5.262;2022-08-19T10:06:39;26.40;59.60
12839;DHT22;6486;51.034;5.262;2022-08-19T10:09:09;26.60;59.00
12839;DHT22;6486;51.034;5.262;2022-08-19T10:11:35;26.50;58.70
12839;DHT22;6486;51.034;5.262;2022-08-19T10:14:04;26.80;58.80
12839;DHT22;6486;51.034;5.262;2022-08-19T10:16:34;26.80;58.70
12839;DHT22;6486;51.034;5.262;2022-08-19T10:19:01;26.70;58.60
12839;DHT22;6486;51.034;5.262;2022-08-19T10:21:29;26.60;58.10
12839;DHT22;6486;51.034;5.262;2022-08-19T10:23:58;26.50;58.00
12839;DHT22;6486;51.034;5.262;2022-08-19T10:26:29;26.70;57.90
12839;DHT22;6486;51.034;5.262;2022-08-19T10:28:56;26.90;57.80
12839;DHT22;6486;51.034;5.262;2022-08-19T10:31:26;27.00;58.50
12839;DHT22;6486;51.034;5.262;2022-08-19T10:33:53;27.00;57.90
12839;DHT22;6486;51.034;5.262;2022-08-19T10:36:28;26.80;57.70
12839;DHT22;6486;51.034;5.262;2022-08-19T10:38:56;26.70;58.00
12839;DHT22;6486;51.034;5.262;2022-08-19T10:41:27;26.60;57.80
12839;DHT22;6486;51.034;5.262;2022-08-19T10:43:58;26.40;57.40
12839;DHT22;6486;51.034;5.262;2022-08-19T10:46:26;26.20;57.30
12839;DHT22;6486;51.034;5.262;2022-08-19T10:48:53;26.10;57.60
12839;DHT22;6486;51.034;5.262;2022-08-19T10:51:20;26.00;57.90
12839;DHT22;6486;51.034;5.262;2022-08-19T10:54:04;25.90;57.90
12839;DHT22;6486;51.034;5.262;2022-08-19T10:56:30;25.90;58.20
12839;DHT22;6486;51.034;5.262;2022-08-19T10:59:16;25.90;58.40
12839;DHT22;6486;51.034;5.262;2022-08-19T11:01:44;26.00;58.40
12839;DHT22;6486;51.034;5.262;2022-08-19T11:04:10;26.00;58.40
12839;DHT22;6486;51.034;5.262;2022-08-19T11:06:43;26.00;58.50
12839;DHT22;6486;51.034;5.262;2022-08-19T11:09:09;26.00;58.40
12839;DHT22;6486;51.034;5.262;2022-08-19T11:11:36;26.00;58.20
12839;DHT22;6486;51.034;5.262;2022-08-19T11:14:07;26.10;58.00
12839;DHT22;6486;51.034;5.262;2022-08-19T11:16:33;26.40;58.00
12839;DHT22;6486;51.034;5.262;2022-08-19T11:18:59;26.40;58.10
12839;DHT22;6486;51.034;5.262;2022-08-19T11:21:33;26.40;58.10
12839;DHT22;6486;51.034;5.262;2022-08-19T11:24:02;26.30;58.30
12839;DHT22;6486;51.034;5.262;2022-08-19T11:26:30;26.30;58.50
12839;DHT22;6486;51.034;5.262;2022-08-19T11:28:57;26.30;58.60
12839;DHT22;6486;51.034;5.262;2022-08-19T11:31:26;26.50;58.40
12839;DHT22;6486;51.034;5.262;2022-08-19T11:33:52;26.80;58.10
12839;DHT22;6486;51.034;5.262;2022-08-19T11:36:21;27.10;57.70
12839;DHT22;6486;51.034;5.262;2022-08-19T11:38:50;27.30;57.40
12839;DHT22;6486;51.034;5.262;2022-08-19T11:41:17;27.50;57.30
12839;DHT22;6486;51.034;5.262;2022-08-19T11:43:43;27.50;56.80
12839;DHT22;6486;51.034;5.262;2022-08-19T11:46:12;27.50;56.90
12839;DHT22;6486;51.034;5.262;2022-08-19T11:48:38;27.40;56.70
12839;DHT22;6486;51.034;5.262;2022-08-19T11:51:08;27.30;56.90
12839;DHT22;6486;51.034;5.262;2022-08-19T11:53:36;27.10;57.60
12839;DHT22;6486;51.034;5.262;2022-08-19T11:56:03;27.00;57.30
12839;DHT22;6486;51.034;5.262;2022-08-19T11:58:29;26.90;57.60
12839;DHT22;6486;51.034;5.262;2022-08-19T12:00:55;27.00;57.70
12839;DHT22;6486;51.034;5.262;2022-08-19T12:03:21;26.90;57.70
12839;DHT22;6486;51.034;5.262;2022-08-19T12:05:48;26.90;57.80
12839;DHT22;6486;51.034;5.262;2022-08-19T12:08:14;26.90;57.90
12839;DHT22;6486;51.034;5.262;2022-08-19T12:10:41;26.80;57.90
12839;DHT22;6486;51.034;5.262;2022-08-19T12:13:08;26.80;58.00
12839;DHT22;6486;51.034;5.262;2022-08-19T12:15:39;26.80;58.00
12839;DHT22;6486;51.034;5.262;2022-08-19T12:18:07;26.90;58.00
12839;DHT22;6486;51.034;5.262;2022-08-19T12:20:38;27.10;58.10
12839;DHT22;6486;51.034;5.262;2022-08-19T12:23:05;27.30;58.50
12839;DHT22;6486;51.034;5.262;2022-08-19T12:25:31;27.30;57.80
12839;DHT22;6486;51.034;5.262;2022-08-19T12:27:58;27.20;57.70
12839;DHT22;6486;51.034;5.262;2022-08-19T12:30:25;27.10;58.00
12839;DHT22;6486;51.034;5.262;2022-08-19T12:32:50;26.90;58.20
12839;DHT22;6486;51.034;5.262;2022-08-19T12:35:17;26.80;58.50
12839;DHT22;6486;51.034;5.262;2022-08-19T12:37:46;26.80;58.80
12839;DHT22;6486;51.034;5.262;2022-08-19T12:40:13;26.70;58.90
12839;DHT22;6486;51.034;5.262;2022-08-19T12:42:39;26.50;58.80
12839;DHT22;6486;51.034;5.262;2022-08-19T12:45:12;26.40;59.10
12839;DHT22;6486;51.034;5.262;2022-08-19T12:47:39;26.40;59.40
12839;DHT22;6486;51.034;5.262;2022-08-19T12:50:05;26.40;59.40
12839;DHT22;6486;51.034;5.262;2022-08-19T12:52:36;26.50;59.40
12839;DHT22;6486;51.034;5.262;2022-08-19T12:55:04;26.60;59.40
12839;DHT22;6486;51.034;5.262;2022-08-19T12:57:30;26.60;59.20
12839;DHT22;6486;51.034;5.262;2022-08-19T13:00:00;26.50;59.20
12839;DHT22;6486;51.034;5.262;2022-08-19T13:02:26;26.50;59.40
12839;DHT22;6486;51.034;5.262;2022-08-19T13:04:51;26.40;59.60
12839;DHT22;6486;51.034;5.262;2022-08-19T13:07:17;26.40;59.70
12839;DHT22;6486;51.034;5.262;2022-08-19T13:09:43;26.40;59.70
12839;DHT22;6486;51.034;5.262;2022-08-19T13:12:08;26.40;59.70
12839;DHT22;6486;51.034;5.262;2022-08-19T13:14:39;26.40;59.80
12839;DHT22;6486;51.034;5.262;2022-08-19T13:17:06;26.30;59.70
12839;DHT22;6486;51.034;5.262;2022-08-19T13:19:32;26.30;59.80
12839;DHT22;6486;51.034;5.262;2022-08-19T13:21:58;26.20;59.80
12839;DHT22;6486;51.034;5.262;2022-08-19T13:24:24;26.20;60.00
12839;DHT22;6486;51.034;5.262;2022-08-19T13:26:50;26.20;59.90
12839;DHT22;6486;51.034;5.262;2022-08-19T13:29:16;26.10;60.00
12839;DHT22;6486;51.034;5.262;2022-08-19T13:32:00;26.10;60.10
12839;DHT22;6486;51.034;5.262;2022-08-19T13:34:44;26.10;60.10
12839;DHT22;6486;51.034;5.262;2022-08-19T13:37:12;26.20;60.10
12839;DHT22;6486;51.034;5.262;2022-08-19T13:39:37;26.20;60.10
12839;DHT22;6486;51.034;5.262;2022-08-19T13:42:04;26.10;60.20
12839;DHT22;6486;51.034;5.262;2022-08-19T13:44:30;26.10;60.40
12839;DHT22;6486;51.034;5.262;2022-08-19T13:47:06;26.20;60.70
12839;DHT22;6486;51.034;5.262;2022-08-19T13:49:33;26.20;60.50
12839;DHT22;6486;51.034;5.262;2022-08-19T13:51:59;26.40;60.50
12839;DHT22;6486;51.034;5.262;2022-08-19T13:54:24;26.50;60.50
12839;DHT22;6486;51.034;5.262;2022-08-19T13:56:50;26.60;60.40
12839;DHT22;6486;51.034;5.262;2022-08-19T13:59:16;26.70;60.10
12839;DHT22;6486;51.034;5.262;2022-08-19T14:01:42;26.80;60.00
12839;DHT22;6486;51.034;5.262;2022-08-19T14:04:08;26.90;60.00
12839;DHT22;6486;51.034;5.262;2022-08-19T14:06:34;27.10;59.80
12839;DHT22;6486;51.034;5.262;2022-08-19T14:09:00;27.20;59.50
12839;DHT22;6486;51.034;5.262;2022-08-19T14:11:28;27.30;59.40
12839;DHT22;6486;51.034;5.262;2022-08-19T14:13:53;27.50;58.90
12839;DHT22;6486;51.034;5.262;2022-08-19T14:16:19;27.60;58.80
12839;DHT22;6486;51.034;5.262;2022-08-19T14:18:47;27.70;58.90
12839;DHT22;6486;51.034;5.262;2022-08-19T14:21:22;27.90;58.60
12839;DHT22;6486;51.034;5.262;2022-08-19T14:23:49;28.10;58.20
12839;DHT22;6486;51.034;5.262;2022-08-19T14:26:17;28.40;57.80
12839;DHT22;6486;51.034;5.262;2022-08-19T14:28:43;28.60;57.60
12839;DHT22;6486;51.034;5.262;2022-08-19T14:31:14;28.60;57.60
12839;DHT22;6486;51.034;5.262;2022-08-19T14:33:44;28.60;57.30
12839;DHT22;6486;51.034;5.262;2022-08-19T14:36:10;28.50;57.10
12839;DHT22;6486;51.034;5.262;2022-08-19T14:38:35;28.30;56.90
12839;DHT22;6486;51.034;5.262;2022-08-19T14:41:21;28.20;57.10
12839;DHT22;6486;51.034;5.262;2022-08-19T14:43:50;28.10;57.30
12839;DHT22;6486;51.034;5.262;2022-08-19T14:46:19;28.10;57.30
12839;DHT22;6486;51.034;5.262;2022-08-19T14:48:46;28.10;57.40
12839;DHT22;6486;51.034;5.262;2022-08-19T14:51:13;28.30;57.20
12839;DHT22;6486;51.034;5.262;2022-08-19T14:53:39;28.50;56.90
12839;DHT22;6486;51.034;5.262;2022-08-19T14:56:10;28.70;56.60
12839;DHT22;6486;51.034;5.262;2022-08-19T14:58:38;28.70;56.70
12839;DHT22;6486;51.034;5.262;2022-08-19T15:01:06;28.70;56.80
12839;DHT22;6486;51.034;5.262;2022-08-19T15:03:32;28.50;57.50
12839;DHT22;6486;51.034;5.262;2022-08-19T15:06:00;28.50;57.00
12839;DHT22;6486;51.034;5.262;2022-08-19T15:08:28;28.40;56.90
12839;DHT22;6486;51.034;5.262;2022-08-19T15:10:54;28.30;56.90
12839;DHT22;6486;51.034;5.262;2022-08-19T15:13:20;28.30;56.80
12839;DHT22;6486;51.034;5.262;2022-08-19T15:15:47;28.40;56.80
12839;DHT22;6486;51.034;5.262;2022-08-19T15:18:13;28.20;56.80
12839;DHT22;6486;51.034;5.262;2022-08-19T15:20:39;28.10;57.00
12839;DHT22;6486;51.034;5.262;2022-08-19T15:23:05;27.90;57.00
12839;DHT22;6486;51.034;5.262;2022-08-19T15:25:31;27.80;57.00
12839;DHT22;6486;51.034;5.262;2022-08-19T15:27:58;27.70;57.20
12839;DHT22;6486;51.034;5.262;2022-08-19T15:30:26;27.60;57.50
12839;DHT22;6486;51.034;5.262;2022-08-19T15:32:54;27.50;57.70
12839;DHT22;6486;51.034;5.262;2022-08-19T15:35:21;27.40;57.70
12839;DHT22;6486;51.034;5.262;2022-08-19T15:37:51;27.40;57.80
12839;DHT22;6486;51.034;5.262;2022-08-19T15:40:18;27.30;57.80
12839;DHT22;6486;51.034;5.262;2022-08-19T15:42:45;27.30;57.90
12839;DHT22;6486;51.034;5.262;2022-08-19T15:45:12;27.20;57.90
12839;DHT22;6486;51.034;5.262;2022-08-19T15:47:39;27.20;58.10
12839;DHT22;6486;51.034;5.262;2022-08-19T15:50:10;27.10;58.00
12839;DHT22;6486;51.034;5.262;2022-08-19T15:52:45;27.10;58.10
12839;DHT22;6486;51.034;5.262;2022-08-19T15:55:11;26.90;58.60
12839;DHT22;6486;51.034;5.262;2022-08-19T15:57:37;26.70;59.40
12839;DHT22;6486;51.034;5.262;2022-08-19T16:00:21;26.50;60.10